sensor_id;sensor_type;location;lat;lon;timestamp;P1;durP1;ratioP1;P2;durP2;ratioP2
22441;SDS011;11388;54.456;9.752;2023-05-27T04:20:11;16.40;;;4.22;;
22441;SDS011;11388;54.456;9.752;2023-05-27T04:22:47;20.52;;;4.68;;
22441;SDS011;11388;54.456;9.752;2023-05-27T04:37:10;19.42;;;4.80;;
22441;SDS011;11388;54.456;9.752;2023-05-27T04:39:46;21.70;;;5.25;;
22441;SDS011;11388;54.456;9.752;2023-05-27T12:57:16;5.05;;;2.33;;
22441;SDS011;11388;54.456;9.752;2023-05-27T16:47:41;5.80;;;2.53;;
22441;SDS011;11388;54.456;9.752;2023-05-27T16:52:59;5.38;;;2.28;;
22441;SDS011;11388;54.456;9.752;2023-05-27T17:11:53;5.63;;;2.38;;
22441;SDS011;11388;54.456;9.752;2023-05-27T17:17:59;4.85;;;2.20;;
22441;SDS011;11388;54.456;9.752;2023-05-27T17:21:10;6.82;;;2.55;;
22441;SDS011;11388;54.456;9.752;2023-05-27T17:26:56;6.05;;;2.38;;
22441;SDS011;11388;54.456;9.752;2023-05-27T17:29:28;5.97;;;2.40;;
22441;SDS011;11388;54.456;9.752;2023-05-27T17:32:16;7.10;;;2.33;;
22441;SDS011;11388;54.456;9.752;2023-05-27T17:34:42;7.68;;;2.25;;
22441;SDS011;11388;54.456;9.752;2023-05-27T17:37:08;6.03;;;2.50;;
22441;SDS011;11388;54.456;9.752;2023-05-27T17:39:34;5.55;;;2.08;;
22441;SDS011;11388;54.456;9.752;2023-05-27T17:42:00;6.60;;;2.40;;
22441;SDS011;11388;54.456;9.752;2023-05-27T17:44:26;5.72;;;2.38;;
22441;SDS011;11388;54.456;9.752;2023-05-27T17:46:52;5.32;;;2.40;;
22441;SDS011;11388;54.456;9.752;2023-05-27T17:49:17;6.22;;;2.40;;
22441;SDS011;11388;54.456;9.752;2023-05-27T17:51:44;5.82;;;2.38;;
22441;SDS011;11388;54.456;9.752;2023-05-27T17:54:09;6.25;;;2.20;;
22441;SDS011;11388;54.456;9.752;2023-05-27T17:56:46;7.72;;;2.53;;
22441;SDS011;11388;54.456;9.752;2023-05-27T17:59:12;8.60;;;2.50;;
22441;SDS011;11388;54.456;9.752;2023-05-27T18:01:37;5.72;;;2.55;;
22441;SDS011;11388;54.456;9.752;2023-05-27T18:04:04;6.70;;;2.47;;
22441;SDS011;11388;54.456;9.752;2023-05-27T18:06:31;6.47;;;2.50;;
22441;SDS011;11388;54.456;9.752;2023-05-27T18:09:00;7.65;;;2.30;;
22441;SDS011;11388;54.456;9.752;2023-05-27T18:11:34;7.20;;;2.63;;
22441;SDS011;11388;54.456;9.752;2023-05-27T18:14:03;6.72;;;2.60;;
22441;SDS011;11388;54.456;9.752;2023-05-27T18:16:31;7.03;;;2.47;;
22441;SDS011;11388;54.456;9.752;2023-05-27T18:19:00;5.47;;;2.53;;
22441;SDS011;11388;54.456;9.752;2023-05-27T18:21:31;7.60;;;2.40;;
22441;SDS011;11388;54.456;9.752;2023-05-27T18:23:56;5.70;;;2.30;;
22441;SDS011;11388;54.456;9.752;2023-05-27T18:26:22;5.85;;;2.15;;
22441;SDS011;11388;54.456;9.752;2023-05-27T18:28:48;6.50;;;2.50;;
22441;SDS011;11388;54.456;9.752;2023-05-27T18:31:14;4.95;;;2.22;;
22441;SDS011;11388;54.456;9.752;2023-05-27T18:33:42;7.15;;;2.30;;
22441;SDS011;11388;54.456;9.752;2023-05-27T18:36:08;6.90;;;2.70;;
22441;SDS011;11388;54.456;9.752;2023-05-27T18:38:37;7.57;;;2.60;;
22441;SDS011;11388;54.456;9.752;2023-05-27T18:41:04;8.15;;;2.45;;
22441;SDS011;11388;54.456;9.752;2023-05-27T18:43:33;5.57;;;2.47;;
22441;SDS011;11388;54.456;9.752;2023-05-27T18:45:58;6.88;;;2.72;;
22441;SDS011;11388;54.456;9.752;2023-05-27T18:48:25;5.30;;;2.40;;
22441;SDS011;11388;54.456;9.752;2023-05-27T19:46:11;7.32;;;3.13;;
22441;SDS011;11388;54.456;9.752;2023-05-27T19:52:53;8.35;;;3.08;;
22441;SDS011;11388;54.456;9.752;2023-05-27T19:59:04;6.63;;;2.85;;
22441;SDS011;11388;54.456;9.752;2023-05-27T20:01:44;7.72;;;3.03;;
22441;SDS011;11388;54.456;9.752;2023-05-27T20:04:18;9.93;;;3.00;;
